Hopland, California
Current Conditions -  °F | °C
As of 6:06 PM on Saturday 25 Oct 2014 (Local Time) from KUKI Reporting Station
Light Rain Light Rain  
Wind Chill: 59°   Ceiling: 3500
Heat Index: 59°   Visibility: 7mi
Dew Point: 54°   Wind: 13mph
Humidity: 83%   Direction: 340°NNW
Pressure: 30.04"   Gusts: NA
Location:  38.97°N, 123.12°W
Report Text: KUKI 260106Z AUTO 34011KT 7SM -RA FEW022 BKN035 OVC044 15/12 A3004 RMK AO2 P0000 T01500122
Loading
Personal Weather Stations






























Interactive Weather Map
Tropical Storm Tracking
New forecast layout! Learn more

10-Day Weather Forecast

Advertisements
Track Severe Weather on mobile